Time;durP1;ratioP1;P1;durP2;ratioP2;P2;SDS_P1;SDS_P2;PMS_P1;PMS_P2;Temp;Humidity;BMP_temperature;BMP_pressure;BME280_temperature;BME280_humidity;BME280_pressure;Samples;Min_cycle;Max_cycle;Signal;HPM_P1;HPM_P2
2022/09/19 00:00:36;;;;;;;32.55;6.65;;;10.40;99.90;;;;;;4958477;28;20597;-76
2022/09/19 00:03:02;;;;;;;28.83;5.95;;;10.40;99.90;;;;;;4924747;29;21214;-77
2022/09/19 00:05:28;;;;;;;27.55;5.70;;;10.40;99.90;;;;;;4937787;28;20129;-77
2022/09/19 00:07:53;;;;;;;34.83;6.88;;;10.40;99.90;;;;;;4925818;28;20118;-77
2022/09/19 00:10:19;;;;;;;36.75;6.70;;;10.40;99.90;;;;;;4942484;28;20117;-77
2022/09/19 00:12:45;;;;;;;35.72;6.75;;;10.40;99.90;;;;;;4942488;28;20490;-77
2022/09/19 00:15:10;;;;;;;35.63;6.53;;;10.40;99.90;;;;;;4952903;28;20042;-77
2022/09/19 00:17:36;;;;;;;30.67;5.43;;;10.50;99.90;;;;;;4922875;29;20035;-77
2022/09/19 00:20:02;;;;;;;37.33;7.40;;;10.50;99.90;;;;;;4921828;29;20035;-76
2022/09/19 00:22:27;;;;;;;30.45;6.15;;;10.50;99.90;;;;;;4938214;29;20372;-76
2022/09/19 00:24:53;;;;;;;21.00;5.00;;;10.50;99.90;;;;;;4939291;28;20042;-77
2022/09/19 00:27:25;;;;;;;25.13;5.93;;;10.50;99.90;;;;;;4957387;28;20397;-77
2022/09/19 00:29:52;;;;;;;38.25;6.80;;;10.50;99.90;;;;;;4958009;28;20185;-76
2022/09/19 00:32:20;;;;;;;33.33;5.85;;;10.50;99.90;;;;;;4922329;29;20039;-76
2022/09/19 00:34:48;;;;;;;17.45;4.65;;;10.50;99.90;;;;;;4940029;28;20442;-76
2022/09/19 00:37:14;;;;;;;27.92;5.95;;;10.50;99.90;;;;;;4957632;28;20141;-76
2022/09/19 00:39:41;;;;;;;48.47;8.88;;;10.50;99.90;;;;;;4957851;28;20409;-77
2022/09/19 00:42:16;;;;;;;36.38;6.75;;;10.50;99.90;;;;;;4939273;29;20043;-77
2022/09/19 00:44:42;;;;;;;22.63;5.97;;;10.50;99.90;;;;;;4939043;28;20434;-77
2022/09/19 00:47:24;;;;;;;29.48;6.60;;;10.50;99.90;;;;;;4957399;28;20126;-77
2022/09/19 00:49:54;;;;;;;35.75;7.05;;;10.50;99.90;;;;;;4941811;28;20118;-77
2022/09/19 00:52:51;;;;;;;39.63;7.13;;;10.50;99.90;;;;;;4957897;28;20051;-77
2022/09/19 00:55:17;;;;;;;26.45;5.85;;;10.50;99.90;;;;;;4951302;28;20055;-77
2022/09/19 00:57:51;;;;;;;37.35;7.40;;;10.50;99.90;;;;;;4949290;28;20125;-76
2022/09/19 01:00:16;;;;;;;40.53;7.30;;;10.50;99.90;;;;;;4941726;28;20042;-76
2022/09/19 01:02:42;;;;;;;38.25;7.55;;;10.50;99.90;;;;;;4936207;28;20046;-77
2022/09/19 01:05:08;;;;;;;39.72;7.57;;;10.50;99.90;;;;;;4954113;28;20050;-76
2022/09/19 01:07:48;;;;;;;29.98;6.68;;;10.50;99.90;;;;;;4946352;29;20435;-76
2022/09/19 01:10:34;;;;;;;31.35;7.05;;;10.50;99.90;;;;;;4921624;29;20490;-76
2022/09/19 01:13:21;;;;;;;33.03;7.03;;;10.40;99.90;;;;;;4930951;29;20066;-76
2022/09/19 01:16:03;;;;;;;30.55;6.45;;;10.40;99.90;;;;;;4937470;28;20036;-76
2022/09/19 01:18:44;;;;;;;35.47;8.07;;;10.40;99.90;;;;;;4949563;28;20046;-77
2022/09/19 01:24:06;;;;;;;47.20;17.52;;;10.40;99.90;;;;;;4929720;29;20125;-77
2022/09/19 01:27:09;;;;;;;29.38;13.52;;;10.40;99.90;;;;;;4926286;28;20517;-76
2022/09/19 01:29:47;;;;;;;62.83;22.40;;;10.30;99.90;;;;;;4941158;28;20426;-77
2022/09/19 01:32:18;;;;;;;26.70;10.27;;;10.40;99.90;;;;;;4936041;28;20159;-77
2022/09/19 01:34:52;;;;;;;30.73;12.85;;;10.30;99.90;;;;;;4940834;28;20034;-77
2022/09/19 01:37:23;;;;;;;35.70;11.90;;;10.40;99.90;;;;;;4917742;28;20106;-77
2022/09/19 01:39:51;;;;;;;33.33;9.77;;;10.40;99.90;;;;;;4935071;29;20042;-77
2022/09/19 01:42:20;;;;;;;34.72;10.30;;;10.40;99.90;;;;;;4934787;29;20435;-77
2022/09/19 01:44:46;;;;;;;33.78;8.75;;;10.40;99.90;;;;;;4921594;29;20043;-77
2022/09/19 01:47:15;;;;;;;26.35;7.38;;;10.30;99.90;;;;;;4920153;29;20098;-77
2022/09/19 01:49:57;;;;;;;34.42;8.00;;;10.30;99.90;;;;;;4946385;28;20090;-77
2022/09/19 01:52:48;;;;;;;43.25;9.45;;;10.30;99.90;;;;;;4940664;28;20077;-77
2022/09/19 01:55:33;;;;;;;39.80;12.48;;;10.20;99.90;;;;;;4956257;28;20042;-77
2022/09/19 01:58:11;;;;;;;39.00;16.85;;;10.10;99.90;;;;;;4951909;28;20405;-76
2022/09/19 02:00:44;;;;;;;41.53;16.40;;;10.10;99.90;;;;;;4956465;28;20070;-76
2022/09/19 02:03:36;;;;;;;36.20;12.07;;;10.10;99.90;;;;;;4937160;29;20070;-76
2022/09/19 02:06:14;;;;;;;34.20;8.40;;;10.10;99.90;;;;;;4902542;29;20043;-76
2022/09/19 02:09:22;;;;;;;33.08;8.18;;;10.10;99.90;;;;;;4951591;28;20038;-76
2022/09/19 02:11:50;;;;;;;25.48;5.60;;;10.10;99.90;;;;;;4928374;28;20133;-76
2022/09/19 02:14:21;;;;;;;30.25;5.28;;;10.10;99.90;;;;;;4942365;28;20091;-77
2022/09/19 02:16:51;;;;;;;21.15;4.30;;;10.00;99.90;;;;;;4916659;29;20047;-76
2022/09/19 02:19:48;;;;;;;32.55;5.45;;;9.90;99.90;;;;;;4936775;29;20047;-76
2022/09/19 02:22:21;;;;;;;29.40;5.25;;;9.90;99.90;;;;;;4937074;29;20043;-76
2022/09/19 02:24:48;;;;;;;25.48;4.20;;;9.80;99.90;;;;;;4937131;28;20095;-76
2022/09/19 02:27:20;;;;;;;29.88;6.32;;;9.80;99.90;;;;;;4938589;28;20078;-76
2022/09/19 02:29:52;;;;;;;18.70;4.68;;;9.70;99.90;;;;;;4927862;29;20031;-76
2022/09/19 02:32:19;;;;;;;49.15;6.50;;;9.60;99.90;;;;;;4936914;29;20047;-76
2022/09/19 02:34:49;;;;;;;27.42;4.72;;;9.60;99.90;;;;;;4936023;29;20039;-76
2022/09/19 02:37:21;;;;;;;27.42;4.47;;;9.50;99.90;;;;;;4965106;28;20043;-77
2022/09/19 02:39:57;;;;;;;31.50;5.00;;;9.40;99.90;;;;;;4939769;28;20047;-77
2022/09/19 02:42:43;;;;;;;29.25;4.45;;;9.40;99.90;;;;;;4944853;29;20046;-77
2022/09/19 02:45:17;;;;;;;24.67;4.50;;;9.40;99.90;;;;;;4906023;29;20442;-77
2022/09/19 02:47:49;;;;;;;24.92;4.75;;;9.40;99.90;;;;;;4937885;28;20393;-77
2022/09/19 02:50:22;;;;;;;29.50;4.63;;;9.40;99.90;;;;;;4939693;28;20321;-77
2022/09/19 02:52:51;;;;;;;31.10;5.35;;;9.40;99.90;;;;;;4944531;28;20050;-77
2022/09/19 02:55:23;;;;;;;29.00;5.20;;;9.40;99.90;;;;;;4942633;28;20069;-78
2022/09/19 02:57:53;;;;;;;26.05;4.10;;;9.30;99.90;;;;;;4954047;28;20437;-78
2022/09/19 03:00:21;;;;;;;24.70;5.13;;;9.30;99.90;;;;;;4939659;28;20039;-78
2022/09/19 03:02:56;;;;;;;27.10;4.45;;;9.30;99.90;;;;;;4955602;28;20054;-78
2022/09/19 03:05:26;;;;;;;27.75;5.20;;;9.30;99.90;;;;;;4937714;28;20089;-78
2022/09/19 03:08:03;;;;;;;32.05;5.10;;;9.40;99.90;;;;;;4941371;28;20498;-78
2022/09/19 03:10:34;;;;;;;26.80;5.82;;;9.40;99.90;;;;;;4948075;29;20143;-78
2022/09/19 03:13:04;;;;;;;31.67;5.45;;;9.40;99.90;;;;;;4920563;29;20043;-78
2022/09/19 03:15:46;;;;;;;27.35;5.65;;;9.30;99.90;;;;;;4936503;29;20050;-78
2022/09/19 03:18:14;;;;;;;43.65;7.20;;;9.40;99.90;;;;;;4932248;28;20045;-78
2022/09/19 03:20:54;;;;;;;35.30;5.82;;;9.40;99.90;;;;;;4933071;28;20171;-78
2022/09/19 03:23:26;;;;;;;32.78;5.93;;;9.40;99.90;;;;;;4937674;28;20035;-78
2022/09/19 03:25:52;;;;;;;32.63;6.40;;;9.50;99.90;;;;;;4955259;28;20053;-78
2022/09/19 03:28:20;;;;;;;36.00;7.53;;;9.50;99.90;;;;;;4945325;28;20497;-78
2022/09/19 03:30:46;;;;;;;35.22;6.82;;;9.60;99.90;;;;;;4953844;28;20094;-78
2022/09/19 03:33:15;;;;;;;32.03;7.05;;;9.60;99.90;;;;;;4918268;29;20039;-78
2022/09/19 03:35:42;;;;;;;33.40;7.15;;;9.70;99.90;;;;;;4917976;29;20098;-78
2022/09/19 03:38:08;;;;;;;40.25;7.25;;;9.70;99.90;;;;;;4936288;28;20053;-78
2022/09/19 03:40:34;;;;;;;30.70;8.20;;;9.70;99.90;;;;;;4955051;28;20047;-78
2022/09/19 03:43:00;;;;;;;48.38;11.00;;;9.70;99.90;;;;;;4955184;28;20050;-77
2022/09/19 03:45:26;;;;;;;25.45;8.07;;;9.70;99.90;;;;;;4950194;28;20039;-77
2022/09/19 03:47:52;;;;;;;32.58;8.07;;;9.60;99.90;;;;;;4913227;28;20049;-78
2022/09/19 03:50:17;;;;;;;33.75;7.30;;;9.60;99.90;;;;;;4955001;28;20042;-78
2022/09/19 03:52:47;;;;;;;42.38;9.18;;;9.60;99.90;;;;;;4955149;28;20449;-78
2022/09/19 03:55:14;;;;;;;48.05;9.85;;;9.60;99.90;;;;;;4955131;28;20138;-78
2022/09/19 03:57:39;;;;;;;36.28;11.63;;;9.60;99.90;;;;;;4934417;29;20123;-78
2022/09/19 04:00:06;;;;;;;25.08;9.13;;;9.60;99.90;;;;;;4948097;28;20041;-77
2022/09/19 04:02:33;;;;;;;30.95;8.40;;;9.60;99.90;;;;;;4957633;28;20057;-78
2022/09/19 04:04:58;;;;;;;56.78;17.85;;;9.60;99.90;;;;;;4958451;28;20085;-77
2022/09/19 04:07:27;;;;;;;35.92;9.73;;;9.60;99.90;;;;;;4942288;28;20039;-77
2022/09/19 04:09:54;;;;;;;30.38;7.32;;;9.60;99.90;;;;;;4949103;28;20055;-77
2022/09/19 04:12:20;;;;;;;40.15;10.38;;;9.60;99.90;;;;;;4910674;29;20485;-78
2022/09/19 04:14:46;;;;;;;45.28;9.13;;;9.60;99.90;;;;;;4939021;29;20039;-78
2022/09/19 04:17:13;;;;;;;34.40;8.45;;;9.50;99.90;;;;;;4927555;28;20069;-77
2022/09/19 04:19:40;;;;;;;25.15;5.90;;;9.50;99.90;;;;;;4952818;28;20047;-77
2022/09/19 04:22:05;;;;;;;29.48;6.15;;;9.40;99.90;;;;;;4945788;29;20090;-78
2022/09/19 04:24:31;;;;;;;26.83;5.50;;;9.50;99.90;;;;;;4923247;29;20055;-78
2022/09/19 04:26:59;;;;;;;22.17;5.25;;;9.40;99.90;;;;;;4937316;29;20130;-78
2022/09/19 04:29:26;;;;;;;33.55;6.07;;;9.40;99.90;;;;;;4945742;29;20031;-77
2022/09/19 04:31:52;;;;;;;32.95;7.15;;;9.40;99.90;;;;;;4957842;28;20175;-77
2022/09/19 04:34:17;;;;;;;35.80;8.18;;;9.30;99.90;;;;;;4958202;28;20559;-78
2022/09/19 04:36:43;;;;;;;38.10;9.68;;;9.20;99.90;;;;;;4942001;28;20529;-78
2022/09/19 04:39:10;;;;;;;42.38;9.68;;;9.20;99.90;;;;;;4940158;28;20073;-78
2022/09/19 04:41:36;;;;;;;40.60;8.48;;;9.10;99.90;;;;;;4960114;28;20466;-78
2022/09/19 04:44:04;;;;;;;32.92;8.35;;;9.00;99.90;;;;;;4942823;28;20043;-77
2022/09/19 04:46:32;;;;;;;34.95;7.15;;;9.00;99.90;;;;;;4949719;28;20043;-77
2022/09/19 04:48:59;;;;;;;38.72;6.90;;;8.90;99.90;;;;;;4957581;28;20043;-77
2022/09/19 04:51:26;;;;;;;35.38;7.32;;;8.90;99.90;;;;;;4937654;28;20046;-78
2022/09/19 04:53:51;;;;;;;31.88;6.80;;;8.70;99.90;;;;;;4938788;29;20170;-77
2022/09/19 04:56:18;;;;;;;30.88;6.78;;;8.70;99.90;;;;;;4922544;29;20130;-78
2022/09/19 04:58:44;;;;;;;57.40;9.35;;;8.70;99.90;;;;;;4936640;28;20050;-77
2022/09/19 05:01:11;;;;;;;36.72;5.45;;;8.60;99.90;;;;;;4950597;28;20129;-77
2022/09/19 05:03:37;;;;;;;31.92;5.25;;;8.50;99.90;;;;;;4948316;28;20129;-77
2022/09/19 05:06:05;;;;;;;28.02;5.47;;;8.50;99.90;;;;;;4937998;29;20550;-77
2022/09/19 05:08:32;;;;;;;20.25;4.85;;;8.50;99.90;;;;;;4922247;29;20413;-77
2022/09/19 05:11:05;;;;;;;30.23;5.78;;;8.50;99.90;;;;;;4937514;29;20119;-77
2022/09/19 05:13:33;;;;;;;18.92;4.72;;;8.50;99.90;;;;;;4945037;28;20123;-77
2022/09/19 05:16:01;;;;;;;24.92;4.95;;;8.50;99.90;;;;;;4937971;29;20031;-77
2022/09/19 05:18:28;;;;;;;25.17;5.03;;;8.50;99.90;;;;;;4938044;29;20054;-77
2022/09/19 05:20:54;;;;;;;27.58;5.40;;;8.50;99.90;;;;;;4921427;29;20050;-77
2022/09/19 05:23:23;;;;;;;25.58;5.05;;;8.50;99.90;;;;;;4921485;28;20069;-77
2022/09/19 05:25:52;;;;;;;32.42;6.00;;;8.50;99.90;;;;;;4956896;28;20051;-77
2022/09/19 05:28:20;;;;;;;29.58;6.85;;;8.50;99.90;;;;;;4940774;28;20030;-77
2022/09/19 05:30:49;;;;;;;30.73;9.18;;;8.50;99.90;;;;;;4950542;29;20041;-77
2022/09/19 05:33:21;;;;;;;42.15;21.50;;;8.50;99.90;;;;;;4939394;28;20070;-77
2022/09/19 05:35:47;;;;;;;49.25;25.35;;;8.50;99.90;;;;;;4933020;28;20035;-77
2022/09/19 05:38:12;;;;;;;36.47;14.05;;;8.50;99.90;;;;;;4940652;28;20043;-77
2022/09/19 05:40:38;;;;;;;38.70;10.27;;;8.50;99.90;;;;;;4935616;28;20391;-77
2022/09/19 05:43:03;;;;;;;35.15;8.30;;;8.50;99.90;;;;;;4936713;28;20109;-77
2022/09/19 05:45:29;;;;;;;32.65;7.38;;;8.50;99.90;;;;;;4940739;28;20074;-77
2022/09/19 05:48:04;;;;;;;26.83;5.05;;;8.50;99.90;;;;;;4920903;29;20038;-77
2022/09/19 05:50:30;;;;;;;24.85;4.80;;;8.50;99.90;;;;;;4937298;29;20093;-77
2022/09/19 05:55:40;;;;;;;19.45;4.50;;;8.40;99.90;;;;;;4943125;28;20110;-77
2022/09/19 05:58:06;;;;;;;34.13;5.68;;;8.40;99.90;;;;;;4956152;28;20046;-77
2022/09/19 06:00:32;;;;;;;19.42;4.63;;;8.40;99.90;;;;;;4933554;29;20480;-78
2022/09/19 06:03:03;;;;;;;26.85;4.57;;;8.40;99.90;;;;;;4936961;29;20083;-78
2022/09/19 06:05:33;;;;;;;28.85;5.38;;;8.40;99.90;;;;;;4937040;29;20039;-78
2022/09/19 06:07:59;;;;;;;22.80;5.13;;;8.50;99.90;;;;;;4920296;29;20090;-77
2022/09/19 06:10:26;;;;;;;23.85;5.20;;;8.50;99.90;;;;;;4925771;29;20086;-77
2022/09/19 06:12:53;;;;;;;29.48;5.78;;;8.50;99.90;;;;;;4929496;28;20043;-77
2022/09/19 06:15:19;;;;;;;25.88;5.85;;;8.50;99.90;;;;;;4939244;29;20126;-78
2022/09/19 06:17:49;;;;;;;27.05;5.40;;;8.50;99.90;;;;;;4931925;28;20137;-79
2022/09/19 06:20:15;;;;;;;22.63;5.78;;;8.60;99.90;;;;;;4945000;29;20035;-77
2022/09/19 06:22:41;;;;;;;26.45;5.78;;;8.60;99.90;;;;;;4939107;28;20066;-79
2022/09/19 06:25:07;;;;;;;25.35;6.88;;;8.70;99.90;;;;;;4932138;29;20043;-78
2022/09/19 06:27:33;;;;;;;31.60;7.53;;;8.70;99.90;;;;;;4940062;28;20050;-77
2022/09/19 06:29:59;;;;;;;28.25;7.13;;;8.80;99.90;;;;;;4956085;28;20609;-76
2022/09/19 06:32:25;;;;;;;26.58;6.53;;;8.80;99.90;;;;;;4945341;29;20038;-78
2022/09/19 06:34:51;;;;;;;26.85;6.32;;;8.90;99.90;;;;;;4934915;29;20514;-79
2022/09/19 06:37:16;;;;;;;22.83;5.68;;;8.90;99.90;;;;;;4920641;29;20550;-79
2022/09/19 06:39:42;;;;;;;25.30;5.93;;;8.90;99.90;;;;;;4936130;29;20039;-78
2022/09/19 06:42:08;;;;;;;29.40;5.72;;;9.00;99.90;;;;;;4930654;29;20391;-78
2022/09/19 06:44:33;;;;;;;34.60;6.43;;;9.00;99.90;;;;;;4936767;29;20043;-77
2022/09/19 06:46:59;;;;;;;31.23;6.35;;;9.10;99.90;;;;;;4920425;29;20125;-77
2022/09/19 06:49:25;;;;;;;24.17;5.90;;;9.20;99.90;;;;;;4920816;29;20071;-77
2022/09/19 06:51:51;;;;;;;26.73;6.65;;;9.20;99.90;;;;;;4920561;29;20043;-77
2022/09/19 06:54:17;;;;;;;21.45;5.95;;;9.20;99.90;;;;;;4919574;29;20035;-77
2022/09/19 06:56:42;;;;;;;28.88;5.97;;;9.30;99.90;;;;;;4920604;29;20122;-77
2022/09/19 06:59:08;;;;;;;18.50;5.18;;;9.30;99.90;;;;;;4917502;29;20095;-77
2022/09/19 07:01:34;;;;;;;31.30;6.00;;;9.40;99.90;;;;;;4930207;28;20031;-77
2022/09/19 07:03:59;;;;;;;31.30;6.22;;;9.40;99.90;;;;;;4951158;28;20116;-77
2022/09/19 07:06:25;;;;;;;27.58;5.93;;;9.50;99.90;;;;;;4948284;29;20066;-77
2022/09/19 07:08:50;;;;;;;26.23;6.47;;;9.60;99.90;;;;;;4927062;28;20035;-78
2022/09/19 07:11:16;;;;;;;18.63;4.60;;;9.60;99.90;;;;;;4940345;29;20075;-77
2022/09/19 07:13:43;;;;;;;16.55;4.85;;;9.70;99.90;;;;;;4944604;28;20454;-77
2022/09/19 07:16:09;;;;;;;19.90;4.15;;;9.80;99.90;;;;;;4932272;28;20051;-77
2022/09/19 07:18:36;;;;;;;18.08;4.65;;;9.80;99.90;;;;;;4938879;29;20074;-77
2022/09/19 07:21:02;;;;;;;25.85;5.35;;;9.90;99.90;;;;;;4936132;29;20047;-78
2022/09/19 07:23:28;;;;;;;25.70;5.57;;;10.00;99.90;;;;;;4942640;29;20133;-77
2022/09/19 07:25:55;;;;;;;21.48;5.32;;;10.00;99.90;;;;;;4935968;29;20126;-77
2022/09/19 07:28:22;;;;;;;25.35;5.20;;;10.10;99.90;;;;;;4918996;29;20046;-77
2022/09/19 07:30:48;;;;;;;24.83;5.07;;;10.20;99.90;;;;;;4936050;29;20048;-78
2022/09/19 07:33:17;;;;;;;21.10;4.50;;;10.20;99.90;;;;;;4934101;29;20043;-78
2022/09/19 07:35:43;;;;;;;22.88;4.97;;;10.30;99.90;;;;;;4918754;28;20039;-78
2022/09/19 07:38:17;;;;;;;15.40;4.32;;;10.30;99.90;;;;;;4939141;29;20078;-78
2022/09/19 07:40:44;;;;;;;22.67;5.00;;;10.40;99.90;;;;;;4923409;29;20046;-78
2022/09/19 07:43:14;;;;;;;19.33;4.20;;;10.50;99.90;;;;;;4940196;29;20130;-78
2022/09/19 07:45:49;;;;;;;34.42;5.88;;;10.50;99.90;;;;;;4939783;29;20043;-77
2022/09/19 07:48:15;;;;;;;13.73;3.55;;;10.60;99.90;;;;;;4923586;29;20039;-78
2022/09/19 07:50:43;;;;;;;20.27;4.32;;;10.70;99.90;;;;;;4922789;29;20035;-78
2022/09/19 07:53:14;;;;;;;21.88;4.82;;;10.70;99.90;;;;;;4943104;28;20093;-77
2022/09/19 07:55:43;;;;;;;18.98;4.25;;;10.80;99.90;;;;;;4929961;28;20039;-79
2022/09/19 07:58:11;;;;;;;13.63;2.70;;;10.80;99.90;;;;;;4929912;28;20050;-77
2022/09/19 08:00:38;;;;;;;14.15;3.88;;;10.90;99.90;;;;;;4930474;28;20053;-77
2022/09/19 08:03:07;;;;;;;16.35;3.53;;;11.00;99.90;;;;;;4946687;29;20055;-77
2022/09/19 08:05:36;;;;;;;16.13;3.60;;;11.00;99.90;;;;;;4922195;29;20047;-77
2022/09/19 08:08:02;;;;;;;18.73;4.20;;;11.20;99.90;;;;;;4924031;28;20030;-77
2022/09/19 08:10:28;;;;;;;14.20;3.10;;;11.20;99.90;;;;;;4921708;29;20038;-78
2022/09/19 08:13:02;;;;;;;12.95;3.10;;;11.30;99.90;;;;;;4949894;28;20042;-77
2022/09/19 08:15:28;;;;;;;14.07;2.88;;;11.40;99.90;;;;;;4942480;29;20160;-78
2022/09/19 08:17:59;;;;;;;16.13;3.35;;;11.50;99.90;;;;;;4938995;29;20051;-79
2022/09/19 08:20:26;;;;;;;19.92;3.50;;;11.50;99.90;;;;;;4923026;29;20057;-78
2022/09/19 08:23:00;;;;;;;15.63;3.28;;;11.60;99.90;;;;;;4951924;28;20133;-79
2022/09/19 08:25:27;;;;;;;16.15;3.00;;;11.70;99.90;;;;;;4947490;28;20138;-78
2022/09/19 08:27:55;;;;;;;13.40;2.78;;;11.70;99.90;;;;;;4937607;28;20512;-79
2022/09/19 08:30:22;;;;;;;16.02;3.00;;;11.80;99.90;;;;;;4938308;28;20043;-78
2022/09/19 08:32:49;;;;;;;14.13;2.67;;;11.90;99.90;;;;;;4942317;28;20085;-78
2022/09/19 08:35:16;;;;;;;12.05;2.97;;;12.00;99.90;;;;;;4949250;28;20126;-79
2022/09/19 08:37:43;;;;;;;15.55;3.05;;;12.10;99.90;;;;;;4941675;28;20565;-78
2022/09/19 08:40:30;;;;;;;10.13;2.40;;;12.20;99.90;;;;;;4925343;29;20486;-78
2022/09/19 08:43:12;;;;;;;15.80;2.90;;;12.30;99.90;;;;;;4938631;29;20039;-78
2022/09/19 08:45:56;;;;;;;10.38;2.33;;;12.40;99.90;;;;;;4947313;28;20047;-78
2022/09/19 08:48:32;;;;;;;10.73;2.40;;;12.60;99.90;;;;;;4953457;28;20122;-78
2022/09/19 08:51:09;;;;;;;9.93;2.10;;;13.00;99.90;;;;;;4946503;28;20181;-78
2022/09/19 08:53:40;;;;;;;11.13;2.00;;;13.40;99.90;;;;;;4940876;28;20043;-79
2022/09/19 08:56:05;;;;;;;12.50;2.70;;;13.80;99.90;;;;;;4926162;29;20047;-77
2022/09/19 08:58:34;;;;;;;11.55;1.92;;;14.10;99.90;;;;;;4960194;28;20047;-77
2022/09/19 09:01:04;;;;;;;13.32;2.65;;;14.40;99.90;;;;;;4922190;29;20039;-76
2022/09/19 09:04:11;;;;;;;11.35;2.08;;;14.60;99.90;;;;;;4929799;29;20051;-76
2022/09/19 09:06:59;;;;;;;11.68;2.35;;;14.80;99.90;;;;;;4918345;28;20061;-76
2022/09/19 09:09:44;;;;;;;8.10;1.88;;;14.90;99.90;;;;;;4957309;28;20181;-76
2022/09/19 09:12:09;;;;;;;11.45;2.13;;;15.00;99.90;;;;;;4957414;28;20038;-77
2022/09/19 09:15:09;;;;;;;10.85;1.90;;;15.20;99.90;;;;;;4957212;28;20409;-75
2022/09/19 09:18:13;;;;;;;10.80;2.45;;;15.30;99.90;;;;;;4940993;28;20082;-76
2022/09/19 09:20:47;;;;;;;;;;;15.50;99.90;;;;;;4941965;28;20394;-76
2022/09/19 09:23:21;;;;;;;11.15;1.80;;;15.70;99.90;;;;;;4957129;28;19918;-75
2022/09/19 09:25:49;;;;;;;12.93;1.80;;;15.80;99.90;;;;;;4957011;28;20039;-76
2022/09/19 09:28:18;;;;;;;14.02;1.85;;;15.90;99.90;;;;;;4940875;28;20042;-76
2022/09/19 09:30:48;;;;;;;7.72;1.50;;;16.00;99.90;;;;;;4957007;28;20070;-76
2022/09/19 09:33:23;;;;;;;10.93;2.03;;;16.00;99.90;;;;;;4940983;28;20042;-76
2022/09/19 09:36:14;;;;;;;9.55;1.85;;;16.00;99.90;;;;;;4941205;28;20109;-76
2022/09/19 09:38:47;;;;;;;8.75;1.60;;;16.10;99.90;;;;;;4956578;28;20058;-76
2022/09/19 09:44:15;;;;;;;8.85;1.83;;;16.00;99.90;;;;;;4956682;28;20097;-76
2022/09/19 09:46:50;;;;;;;10.13;1.65;;;15.80;99.90;;;;;;4940746;28;20086;-76
2022/09/19 09:49:18;;;;;;;10.20;2.05;;;15.90;99.90;;;;;;4956577;28;20039;-76
2022/09/19 09:52:13;;;;;;;10.25;1.70;;;16.00;99.90;;;;;;4956919;28;20489;-76
2022/09/19 09:58:01;;;;;;;9.93;1.92;;;16.00;99.90;;;;;;4956300;28;20421;-76
2022/09/19 10:03:34;;;;;;;13.68;1.80;;;16.30;99.90;;;;;;4956398;28;20110;-76
2022/09/19 10:06:24;;;;;;;12.70;2.75;;;16.70;99.90;;;;;;4956396;28;20047;-76
2022/09/19 10:09:08;;;;;;;10.70;1.90;;;16.50;99.90;;;;;;4956138;28;20038;-76
2022/09/19 10:11:56;;;;;;;12.18;2.00;;;16.30;99.90;;;;;;4956546;28;20037;-77
2022/09/19 10:14:31;;;;;;;8.10;1.80;;;15.90;99.90;;;;;;4956252;28;20043;-76
2022/09/19 10:17:03;;;;;;;9.60;1.92;;;15.50;99.90;;;;;;4955977;28;20046;-76
2022/09/19 10:19:46;;;;;;;7.50;1.60;;;15.00;99.90;;;;;;4956427;28;20078;-76
2022/09/19 10:22:16;;;;;;;9.50;1.67;;;14.70;99.90;;;;;;4956161;28;20053;-76
2022/09/19 10:24:53;;;;;;;7.78;1.38;;;14.40;99.90;;;;;;4956040;28;20570;-76
2022/09/19 10:27:26;;;;;;;8.88;1.55;;;14.30;99.90;;;;;;4955914;28;20121;-75
2022/09/19 10:30:10;;;;;;;7.03;1.30;;;14.20;99.90;;;;;;4956011;28;20042;-76
2022/09/19 10:32:37;;;;;;;7.55;1.45;;;14.20;99.90;;;;;;4956000;28;20512;-76
2022/09/19 10:35:26;;;;;;;9.57;1.90;;;14.70;99.90;;;;;;4939872;28;20039;-76
2022/09/19 10:38:02;;;;;;;9.07;1.80;;;15.30;99.90;;;;;;4955655;28;20111;-77
2022/09/19 10:40:32;;;;;;;10.85;1.73;;;15.90;99.90;;;;;;4955918;28;20486;-76
2022/09/19 10:42:59;;;;;;;8.07;1.58;;;16.10;99.90;;;;;;4956064;28;20442;-76
2022/09/19 10:45:32;;;;;;;12.00;2.65;;;16.00;99.90;;;;;;4955609;28;20043;-76
2022/09/19 10:48:05;;;;;;;10.07;2.10;;;15.80;99.90;;;;;;4955605;28;20047;-77
2022/09/19 10:50:31;;;;;;;9.93;2.10;;;15.90;99.90;;;;;;4955923;28;20043;-76
2022/09/19 10:53:03;;;;;;;11.10;1.83;;;16.10;99.90;;;;;;4955878;28;20394;-76
2022/09/19 10:55:32;;;;;;;7.72;1.77;;;16.20;99.90;;;;;;4955833;28;20064;-76
2022/09/19 10:58:03;;;;;;;9.30;2.25;;;16.40;99.90;;;;;;4955504;28;20105;-76
2022/09/19 11:00:53;;;;;;;9.63;1.67;;;16.70;99.90;;;;;;4955706;28;20038;-76
2022/09/19 11:03:25;;;;;;;13.07;2.55;;;16.90;99.90;;;;;;4956034;28;20466;-77
2022/09/19 11:06:06;;;;;;;11.38;2.55;;;17.20;99.90;;;;;;4939861;28;20066;-76
2022/09/19 11:08:44;;;;;;;11.05;2.22;;;17.40;99.90;;;;;;4955332;28;20047;-76
2022/09/19 11:11:46;;;;;;;11.25;2.00;;;17.80;99.90;;;;;;4958010;28;20567;-76
2022/09/19 11:14:15;;;;;;;9.75;2.03;;;18.10;99.90;;;;;;4959494;28;20074;-76
2022/09/19 11:17:06;;;;;;;8.63;1.60;;;18.10;99.90;;;;;;4959470;28;20043;-77
2022/09/19 11:19:34;;;;;;;5.20;1.10;;;17.80;99.90;;;;;;4959360;28;20047;-76
2022/09/19 11:22:02;;;;;;;7.80;1.23;;;17.20;99.90;;;;;;4959351;28;20039;-76
2022/09/19 11:25:10;;;;;;;6.75;1.17;;;16.60;99.90;;;;;;4959312;28;20082;-76
2022/09/19 11:27:36;;;;;;;6.45;1.48;;;16.00;99.90;;;;;;4958993;28;20387;-77
2022/09/19 11:30:22;;;;;;;9.00;1.50;;;15.60;99.90;;;;;;4943304;28;20046;-76
2022/09/19 11:33:21;;;;;;;5.65;1.70;;;15.30;99.90;;;;;;4959179;28;20413;-76
2022/09/19 11:36:20;;;;;;;8.07;1.67;;;14.90;99.90;;;;;;4959137;28;20043;-76
2022/09/19 11:39:03;;;;;;;8.20;1.70;;;14.60;99.90;;;;;;4932055;28;20058;-77
2022/09/19 11:41:35;;;;;;;9.68;1.90;;;14.40;99.90;;;;;;4943410;28;20038;-76
2022/09/19 11:44:25;;;;;;;7.70;1.63;;;14.20;99.90;;;;;;4959031;28;20043;-76
2022/09/19 11:47:22;;;;;;;15.25;2.38;;;14.10;99.90;;;;;;4958737;28;20192;-77
2022/09/19 11:50:10;;;;;;;12.30;1.90;;;13.90;99.90;;;;;;4959011;28;20049;-78
2022/09/19 11:52:48;;;;;;;8.93;1.60;;;13.70;99.90;;;;;;4958945;28;20066;-80
2022/09/19 11:55:32;;;;;;;8.85;1.55;;;13.60;99.90;;;;;;4958646;28;20053;-77
2022/09/19 11:58:15;;;;;;;10.43;1.60;;;13.50;99.90;;;;;;4942610;28;20137;-77
2022/09/19 12:01:23;;;;;;;8.98;1.60;;;13.50;99.90;;;;;;4942995;28;20050;-77
2022/09/19 12:04:05;;;;;;;10.50;1.70;;;13.60;99.90;;;;;;4958783;28;20104;-77
2022/09/19 12:06:43;;;;;;;8.87;1.60;;;13.70;99.90;;;;;;4942819;28;20054;-77
2022/09/19 12:09:17;;;;;;;12.55;2.08;;;13.80;99.90;;;;;;4942352;28;20572;-77
2022/09/19 12:11:51;;;;;;;7.93;1.80;;;14.00;99.90;;;;;;4958539;28;20497;-77
2022/09/19 12:14:26;;;;;;;10.93;1.67;;;14.30;99.90;;;;;;4942331;28;20034;-77
2022/09/19 12:17:05;;;;;;;11.65;1.80;;;14.50;99.90;;;;;;4958377;28;20127;-78
2022/09/19 12:19:38;;;;;;;14.57;2.17;;;14.70;99.90;;;;;;4958637;28;20117;-77
2022/09/19 12:22:20;;;;;;;12.68;2.50;;;14.90;99.90;;;;;;4941650;28;20521;-76
2022/09/19 12:25:06;;;;;;;8.90;1.70;;;15.00;99.90;;;;;;4958222;28;20038;-77
2022/09/19 12:27:39;;;;;;;11.85;2.00;;;15.20;99.90;;;;;;4957978;28;20043;-76
2022/09/19 12:30:13;;;;;;;10.48;1.70;;;15.40;99.90;;;;;;4958191;28;20054;-77
2022/09/19 12:33:02;;;;;;;11.82;1.90;;;15.70;99.90;;;;;;4958156;28;20031;-76
2022/09/19 12:35:57;;;;;;;8.38;1.77;;;16.20;99.90;;;;;;4942078;28;20126;-77
2022/09/19 12:38:51;;;;;;;8.63;1.45;;;16.50;99.90;;;;;;4957878;28;20047;-77
2022/09/19 12:41:34;;;;;;;9.23;1.70;;;16.70;99.90;;;;;;4958008;28;20039;-76
2022/09/19 12:44:34;;;;;;;8.90;1.70;;;16.80;99.90;;;;;;4957856;28;20494;-76
2022/09/19 12:47:25;;;;;;;8.55;1.52;;;16.70;99.90;;;;;;4941718;28;20039;-76
2022/09/19 12:50:21;;;;;;;7.05;1.30;;;16.80;99.90;;;;;;4958232;28;20109;-76
2022/09/19 12:53:09;;;;;;;8.25;1.55;;;16.90;99.90;;;;;;4957688;28;20042;-76
2022/09/19 12:55:41;;;;;;;7.88;1.60;;;17.00;99.90;;;;;;4957763;28;20081;-76
2022/09/19 12:58:18;;;;;;;7.50;1.77;;;17.10;99.90;;;;;;4957471;28;20122;-76
2022/09/19 13:00:45;;;;;;;7.75;1.42;;;17.10;99.90;;;;;;4957666;28;20039;-76
2022/09/19 13:03:23;;;;;;;9.40;1.70;;;17.10;99.90;;;;;;4941560;28;20089;-76
2022/09/19 13:05:48;;;;;;;11.38;1.75;;;17.10;99.90;;;;;;4957702;28;20043;-76
2022/09/19 13:08:27;;;;;;;10.45;2.17;;;17.10;99.90;;;;;;4941185;28;20046;-77
2022/09/19 13:11:16;;;;;;;9.23;2.03;;;17.00;99.90;;;;;;4957403;28;20039;-77
2022/09/19 13:14:17;;;;;;;11.35;2.20;;;16.90;99.90;;;;;;4957314;28;20049;-76
2022/09/19 13:25:19;;;;;;;12.13;2.17;;;16.80;99.90;;;;;;4957063;28;20174;-77
2022/09/19 13:27:45;;;;;;;9.25;1.80;;;16.50;99.90;;;;;;4956847;28;20047;-77
2022/09/19 13:30:48;;;;;;;9.48;2.10;;;16.50;99.90;;;;;;4957138;28;20043;-77
2022/09/19 13:33:25;;;;;;;10.80;2.13;;;16.40;99.90;;;;;;4956533;28;20043;-76
2022/09/19 13:35:53;;;;;;;10.65;1.80;;;16.40;99.90;;;;;;4956687;28;20276;-76